Time;durP1;ratioP1;P1;durP2;ratioP2;P2;SDS_P1;SDS_P2;PMS_P1;PMS_P2;Temp;Humidity;BMP_temperature;BMP_pressure;BME280_temperature;BME280_humidity;BME280_pressure;Samples;Min_cycle;Max_cycle;Signal;HPM_P1;HPM_P2
2023/04/30 00:01:37;;;;;;;0.13;0.13;;;2.70;99.90;;;;;;5032648;28;20022;-74
2023/04/30 00:04:03;;;;;;;0.20;0.20;;;2.60;99.90;;;;;;5033246;28;20029;-75
2023/04/30 00:06:29;;;;;;;0.20;0.20;;;2.60;99.90;;;;;;5032533;28;20026;-73
2023/04/30 00:08:55;;;;;;;0.10;0.10;;;2.50;99.90;;;;;;5033399;28;20391;-74
2023/04/30 00:11:21;;;;;;;0.20;0.20;;;2.40;99.90;;;;;;5033361;28;20014;-73
2023/04/30 00:13:46;;;;;;;0.20;0.20;;;2.40;99.90;;;;;;5033467;28;20033;-74
2023/04/30 00:16:12;;;;;;;0.20;0.20;;;2.40;99.90;;;;;;5032760;28;20025;-74
2023/04/30 00:18:38;;;;;;;0.22;0.22;;;2.30;99.90;;;;;;5033011;28;20021;-74
2023/04/30 00:21:04;;;;;;;0.20;0.20;;;2.40;99.90;;;;;;5033410;28;20033;-74
2023/04/30 00:23:29;;;;;;;0.20;0.20;;;2.40;99.90;;;;;;5032932;28;20040;-74
2023/04/30 00:25:55;;;;;;;0.20;0.20;;;2.40;99.90;;;;;;5033170;28;20029;-74
2023/04/30 00:28:20;;;;;;;0.20;0.20;;;2.40;99.90;;;;;;5032898;28;20018;-73
2023/04/30 00:30:46;;;;;;;0.20;0.20;;;2.50;99.90;;;;;;5014546;28;20407;-74
2023/04/30 00:33:12;;;;;;;0.20;0.20;;;2.50;99.90;;;;;;5033006;28;20032;-74
2023/04/30 00:35:37;;;;;;;0.15;0.15;;;2.50;99.90;;;;;;5033161;28;20505;-74
2023/04/30 00:38:03;;;;;;;0.20;0.20;;;2.60;99.90;;;;;;5032573;28;20167;-74
2023/04/30 00:40:29;;;;;;;0.20;0.20;;;2.80;99.90;;;;;;5032235;28;20029;-75
2023/04/30 00:42:54;;;;;;;0.20;0.20;;;2.90;99.90;;;;;;5032796;28;20483;-74
2023/04/30 00:45:21;;;;;;;0.13;0.13;;;3.10;99.90;;;;;;5032722;28;20021;-74
2023/04/30 00:47:47;;;;;;;0.10;0.10;;;3.20;99.90;;;;;;5033129;28;20021;-74
2023/04/30 00:50:15;;;;;;;0.20;0.20;;;3.30;99.90;;;;;;5032597;28;20057;-74
2023/04/30 00:52:41;;;;;;;0.10;0.10;;;3.30;99.90;;;;;;5014706;28;20090;-74
2023/04/30 00:55:08;;;;;;;0.25;0.25;;;3.40;99.90;;;;;;5032383;28;20018;-74
2023/04/30 00:57:35;;;;;;;0.30;0.30;;;3.40;99.90;;;;;;5032827;28;20045;-74
2023/04/30 01:00:01;;;;;;;0.20;0.20;;;3.40;99.90;;;;;;5032727;28;20029;-74
2023/04/30 01:02:26;;;;;;;0.20;0.20;;;3.40;99.90;;;;;;5032403;28;20487;-74
2023/04/30 01:04:53;;;;;;;0.20;0.20;;;3.50;99.90;;;;;;5032308;28;20032;-74
2023/04/30 01:07:19;;;;;;;0.20;0.20;;;3.60;99.90;;;;;;5014623;28;20021;-74
2023/04/30 01:09:45;;;;;;;0.20;0.20;;;3.60;99.90;;;;;;5014966;28;20029;-74
2023/04/30 01:12:50;;;;;;;0.20;0.20;;;3.60;99.90;;;;;;5032451;28;20547;-74
2023/04/30 01:15:31;;;;;;;0.25;0.25;;;3.60;99.90;;;;;;5015015;28;20032;-74
2023/04/30 01:18:03;;;;;;;0.30;0.30;;;3.60;99.90;;;;;;5034588;28;20068;-74
2023/04/30 01:20:30;;;;;;;0.25;0.25;;;3.60;99.90;;;;;;5036930;28;20025;-74
2023/04/30 01:23:25;;;;;;;0.20;0.20;;;3.50;99.90;;;;;;5036638;28;20578;-74
2023/04/30 01:26:12;;;;;;;0.10;0.10;;;3.40;99.90;;;;;;5036864;28;20083;-73
2023/04/30 01:28:41;;;;;;;0.20;0.20;;;3.30;99.90;;;;;;5036058;28;20542;-74
2023/04/30 01:31:15;;;;;;;0.20;0.20;;;3.40;99.90;;;;;;5036469;28;20060;-74
2023/04/30 01:33:41;;;;;;;0.15;0.15;;;3.40;99.90;;;;;;5036416;28;20018;-74
2023/04/30 01:36:38;;;;;;;0.20;0.20;;;3.50;99.90;;;;;;5035956;28;20028;-74
2023/04/30 01:39:43;;;;;;;0.20;0.20;;;3.70;99.90;;;;;;5036368;28;20039;-74
2023/04/30 01:42:24;;;;;;;0.20;0.20;;;3.70;99.90;;;;;;5035868;28;20095;-74
2023/04/30 01:45:18;;;;;;;0.20;0.20;;;3.70;99.90;;;;;;5035746;28;20056;-74
2023/04/30 01:48:03;;;;;;;0.30;0.30;;;3.80;99.90;;;;;;5036605;28;20528;-73
2023/04/30 01:50:31;;;;;;;0.20;0.20;;;3.80;99.90;;;;;;5036061;28;20036;-74
2023/04/30 01:52:59;;;;;;;0.30;0.30;;;3.80;99.90;;;;;;5087606;23;20053;-74
2023/04/30 01:55:43;;;;;;;0.28;0.28;;;3.90;99.90;;;;;;5018320;28;20027;-74
2023/04/30 01:58:13;;;;;;;0.20;0.20;;;3.90;99.90;;;;;;5036097;28;20021;-74
2023/04/30 02:00:39;;;;;;;0.20;0.20;;;3.90;99.90;;;;;;5036035;28;20079;-74
2023/04/30 02:03:05;;;;;;;0.22;0.22;;;4.00;99.90;;;;;;5018029;28;20022;-74
2023/04/30 02:05:31;;;;;;;0.30;0.30;;;4.00;99.90;;;;;;5035854;28;20021;-74
2023/04/30 02:07:57;;;;;;;0.20;0.20;;;4.00;99.90;;;;;;5035642;28;20033;-74
2023/04/30 02:10:25;;;;;;;0.20;0.20;;;4.00;99.90;;;;;;5035832;28;20546;-74
2023/04/30 02:12:50;;;;;;;0.20;0.20;;;4.00;99.90;;;;;;5017817;28;20368;-74
2023/04/30 02:15:16;;;;;;;0.10;0.10;;;4.10;99.90;;;;;;5035142;28;20029;-74
2023/04/30 02:17:42;;;;;;;0.10;0.10;;;4.00;99.90;;;;;;5035661;28;20108;-74
2023/04/30 02:20:08;;;;;;;0.17;0.17;;;4.00;99.90;;;;;;5035567;28;20395;-74
2023/04/30 02:22:34;;;;;;;0.20;0.20;;;4.00;99.90;;;;;;5035540;28;20113;-74
2023/04/30 02:25:00;;;;;;;0.20;0.20;;;4.00;99.90;;;;;;5017647;28;20021;-73
2023/04/30 02:27:26;;;;;;;0.20;0.20;;;4.00;99.90;;;;;;5035089;28;20471;-74
2023/04/30 02:29:52;;;;;;;0.20;0.20;;;4.00;99.90;;;;;;5034362;28;20021;-74
2023/04/30 02:32:18;;;;;;;0.20;0.20;;;4.00;99.90;;;;;;5035386;28;20049;-74
2023/04/30 02:34:44;;;;;;;0.20;0.20;;;4.00;99.90;;;;;;5035317;28;20495;-74
2023/04/30 02:37:09;;;;;;;0.20;0.20;;;4.00;99.90;;;;;;5035287;28;20033;-74
2023/04/30 02:39:35;;;;;;;0.20;0.20;;;4.00;99.90;;;;;;5034723;28;20025;-74
2023/04/30 02:42:00;;;;;;;0.20;0.20;;;4.00;99.90;;;;;;5035354;28;20061;-73
2023/04/30 02:44:27;;;;;;;0.10;0.10;;;4.00;99.90;;;;;;5030582;28;20080;-73
2023/04/30 02:46:53;;;;;;;0.10;0.10;;;3.90;99.90;;;;;;5015696;28;20037;-73
2023/04/30 02:49:18;;;;;;;0.13;0.13;;;3.70;99.90;;;;;;5014875;28;20396;-73
2023/04/30 02:51:44;;;;;;;0.20;0.20;;;3.60;99.90;;;;;;5014986;28;20144;-73
2023/04/30 02:54:09;;;;;;;0.20;0.20;;;3.40;99.90;;;;;;5015131;28;20479;-73
2023/04/30 02:56:35;;;;;;;0.20;0.20;;;3.40;99.90;;;;;;5015121;28;20026;-74
2023/04/30 02:59:00;;;;;;;0.20;0.20;;;3.20;99.90;;;;;;5015132;28;20523;-74
2023/04/30 03:01:26;;;;;;;0.20;0.20;;;3.20;99.90;;;;;;5028628;28;20037;-73
2023/04/30 03:03:51;;;;;;;0.30;0.30;;;3.20;99.90;;;;;;5034683;28;20116;-73
2023/04/30 03:06:17;;;;;;;0.20;0.20;;;3.30;99.90;;;;;;5034525;28;20025;-73
2023/04/30 03:08:43;;;;;;;0.30;0.30;;;3.30;99.90;;;;;;5034578;28;20513;-73
2023/04/30 03:11:08;;;;;;;0.20;0.20;;;3.30;99.90;;;;;;5034127;28;20033;-73
2023/04/30 03:13:34;;;;;;;0.20;0.20;;;3.40;99.90;;;;;;5034413;28;20422;-73
2023/04/30 03:16:00;;;;;;;0.28;0.28;;;3.40;99.90;;;;;;5034404;28;20025;-73
2023/04/30 03:18:27;;;;;;;0.20;0.20;;;3.40;99.90;;;;;;5016482;28;20028;-73
2023/04/30 03:20:53;;;;;;;0.20;0.20;;;3.50;99.90;;;;;;5033774;28;20041;-73
2023/04/30 03:23:19;;;;;;;0.20;0.20;;;3.60;99.90;;;;;;5034385;28;20460;-73
2023/04/30 03:25:44;;;;;;;0.20;0.20;;;3.60;99.90;;;;;;5034275;28;20026;-73
2023/04/30 03:28:10;;;;;;;0.22;0.22;;;3.70;99.90;;;;;;5016402;28;20390;-73
2023/04/30 03:30:35;;;;;;;0.20;0.20;;;3.80;99.90;;;;;;5034339;28;20037;-73
2023/04/30 03:33:01;;;;;;;0.17;0.17;;;3.80;99.90;;;;;;5034140;28;20033;-73
2023/04/30 03:35:26;;;;;;;0.15;0.15;;;3.90;99.90;;;;;;5033611;28;20083;-73
2023/04/30 03:37:52;;;;;;;0.17;0.17;;;3.90;99.90;;;;;;5034135;28;20021;-73
2023/04/30 03:40:17;;;;;;;0.20;0.20;;;3.90;99.90;;;;;;5033879;28;20022;-73
2023/04/30 03:42:43;;;;;;;0.20;0.20;;;3.90;99.90;;;;;;5033957;28;20056;-73
2023/04/30 03:45:09;;;;;;;0.20;0.20;;;3.90;99.90;;;;;;5034277;28;20356;-73
2023/04/30 03:47:35;;;;;;;0.13;0.13;;;3.80;99.90;;;;;;5032997;28;20394;-73
2023/04/30 03:50:02;;;;;;;0.20;0.20;;;3.80;99.90;;;;;;5033982;28;20022;-73
2023/04/30 03:52:28;;;;;;;0.20;0.20;;;3.70;99.90;;;;;;5033660;28;20025;-73
2023/04/30 03:54:53;;;;;;;0.30;0.30;;;3.70;99.90;;;;;;5034090;28;20439;-73
2023/04/30 03:57:19;;;;;;;0.20;0.20;;;3.70;99.90;;;;;;5033505;28;20406;-73
2023/04/30 03:59:45;;;;;;;0.20;0.20;;;3.70;99.90;;;;;;5033049;28;20048;-73
2023/04/30 04:02:11;;;;;;;0.25;0.25;;;3.80;99.90;;;;;;5033170;28;20475;-73
2023/04/30 04:04:36;;;;;;;0.20;0.20;;;3.80;99.90;;;;;;5033555;28;20033;-73
2023/04/30 04:07:02;;;;;;;0.20;0.20;;;3.80;99.90;;;;;;5033433;28;20025;-73
2023/04/30 04:09:28;;;;;;;0.20;0.20;;;3.80;99.90;;;;;;5033856;28;20471;-73
2023/04/30 04:11:54;;;;;;;0.20;0.20;;;3.90;99.90;;;;;;5032767;28;20391;-73
2023/04/30 04:14:20;;;;;;;0.20;0.20;;;3.90;99.90;;;;;;5033250;28;20057;-73
2023/04/30 04:16:45;;;;;;;0.20;0.20;;;3.90;99.90;;;;;;5033285;28;20372;-73
2023/04/30 04:19:14;;;;;;;0.20;0.20;;;3.90;99.90;;;;;;5014998;28;20025;-73
2023/04/30 04:21:40;;;;;;;0.20;0.20;;;3.90;99.90;;;;;;5033102;28;20475;-73
2023/04/30 04:24:07;;;;;;;0.20;0.20;;;4.00;99.90;;;;;;5033228;28;20057;-73
2023/04/30 04:26:35;;;;;;;0.20;0.20;;;4.10;99.90;;;;;;5032923;28;20021;-73
2023/04/30 04:29:01;;;;;;;0.20;0.20;;;4.20;99.90;;;;;;5033016;28;20024;-73
2023/04/30 04:31:27;;;;;;;0.20;0.20;;;4.20;99.90;;;;;;5033288;28;20017;-73
2023/04/30 04:33:57;;;;;;;0.20;0.20;;;4.30;99.90;;;;;;5033125;28;20020;-73
2023/04/30 04:36:23;;;;;;;0.20;0.20;;;4.30;99.90;;;;;;5033174;28;20113;-73
2023/04/30 04:38:48;;;;;;;0.20;0.20;;;4.40;99.90;;;;;;5032439;28;20037;-73
2023/04/30 04:41:14;;;;;;;0.30;0.30;;;4.40;99.90;;;;;;5033086;28;20372;-73
2023/04/30 04:43:40;;;;;;;0.20;0.20;;;4.50;99.90;;;;;;5032911;28;20513;-73
2023/04/30 04:46:07;;;;;;;0.20;0.20;;;4.60;99.90;;;;;;5032583;28;20509;-73
2023/04/30 04:48:33;;;;;;;0.20;0.20;;;4.70;99.90;;;;;;5033036;28;20484;-73
2023/04/30 04:50:58;;;;;;;0.15;0.15;;;4.80;99.90;;;;;;5032974;28;20056;-73
2023/04/30 04:53:24;;;;;;;0.20;0.20;;;4.80;99.90;;;;;;5032350;28;20116;-73
2023/04/30 04:55:49;;;;;;;0.20;0.20;;;4.90;99.90;;;;;;5032855;28;20029;-73
2023/04/30 04:58:15;;;;;;;0.25;0.25;;;5.00;99.90;;;;;;5033441;28;20034;-73
2023/04/30 05:00:40;;;;;;;0.20;0.20;;;5.00;99.90;;;;;;5032270;28;20049;-73
2023/04/30 05:03:08;;;;;;;0.20;0.20;;;5.10;99.90;;;;;;5033013;28;20029;-73
2023/04/30 05:05:33;;;;;;;0.15;0.15;;;5.20;99.90;;;;;;5032789;28;20021;-73
2023/04/30 05:07:59;;;;;;;0.30;0.30;;;5.30;99.90;;;;;;5032591;28;20043;-73
2023/04/30 05:10:24;;;;;;;0.20;0.20;;;5.30;99.90;;;;;;5032668;28;20028;-73
2023/04/30 05:12:50;;;;;;;0.20;0.20;;;5.40;99.90;;;;;;5032609;28;20072;-73
2023/04/30 05:15:15;;;;;;;0.30;0.30;;;5.40;99.90;;;;;;5032276;28;20076;-73
2023/04/30 05:17:41;;;;;;;0.10;0.10;;;5.30;99.90;;;;;;5032666;28;20091;-73
2023/04/30 05:20:07;;;;;;;0.22;0.22;;;5.30;99.90;;;;;;5032951;28;20036;-73
2023/04/30 05:22:33;;;;;;;0.20;0.20;;;5.30;99.90;;;;;;5032832;28;20470;-73
2023/04/30 05:24:58;;;;;;;0.25;0.25;;;5.50;99.90;;;;;;5014314;28;20065;-73
2023/04/30 05:27:24;;;;;;;0.20;0.20;;;5.60;99.90;;;;;;5032544;28;20072;-73
2023/04/30 05:29:49;;;;;;;0.30;0.30;;;5.70;99.90;;;;;;5032629;28;20075;-73
2023/04/30 05:32:15;;;;;;;0.10;0.10;;;5.80;99.90;;;;;;5032302;28;20036;-73
2023/04/30 05:34:41;;;;;;;0.20;0.20;;;5.80;99.90;;;;;;5014516;28;20025;-73
2023/04/30 05:37:06;;;;;;;0.25;0.25;;;5.90;99.90;;;;;;5032559;28;20169;-73
2023/04/30 05:39:32;;;;;;;0.30;0.30;;;6.00;99.90;;;;;;5032621;28;20037;-73
2023/04/30 05:41:57;;;;;;;0.15;0.15;;;6.20;99.90;;;;;;5032273;28;20143;-73
2023/04/30 05:44:23;;;;;;;0.20;0.20;;;6.30;99.90;;;;;;5032422;28;20034;-73
2023/04/30 05:46:48;;;;;;;0.10;0.10;;;6.50;99.90;;;;;;5031807;28;20037;-73
2023/04/30 05:49:14;;;;;;;0.20;0.20;;;6.70;99.90;;;;;;5032527;28;20025;-73
2023/04/30 05:51:39;;;;;;;0.20;0.20;;;7.00;99.90;;;;;;5032293;28;20017;-74
2023/04/30 05:54:05;;;;;;;0.20;0.20;;;7.20;99.90;;;;;;5032684;28;20088;-73
2023/04/30 05:56:30;;;;;;;0.20;0.20;;;7.30;99.90;;;;;;5032274;28;20095;-73
2023/04/30 05:58:56;;;;;;;0.20;0.20;;;7.50;99.90;;;;;;5032324;28;20029;-74
2023/04/30 06:01:22;;;;;;;0.20;0.20;;;7.60;99.90;;;;;;5031802;28;20040;-73
2023/04/30 06:03:47;;;;;;;0.20;0.20;;;7.60;99.90;;;;;;5015086;28;20033;-74
2023/04/30 06:06:13;;;;;;;0.20;0.20;;;7.60;99.90;;;;;;5035800;28;20075;-74
2023/04/30 06:08:43;;;;;;;0.10;0.10;;;7.60;99.90;;;;;;5017687;28;20029;-73
2023/04/30 06:11:09;;;;;;;0.10;0.10;;;7.60;99.90;;;;;;5033941;28;20386;-74
2023/04/30 06:13:35;;;;;;;0.20;0.20;;;7.60;99.90;;;;;;5034253;28;20018;-74
2023/04/30 06:16:01;;;;;;;0.20;0.20;;;7.60;99.90;;;;;;5017280;28;20073;-75
2023/04/30 06:18:26;;;;;;;0.20;0.20;;;7.60;99.90;;;;;;5015278;28;20037;-74
2023/04/30 06:20:52;;;;;;;0.20;0.20;;;7.60;99.90;;;;;;5031694;28;20061;-74
2023/04/30 06:23:17;;;;;;;0.20;0.20;;;7.60;99.90;;;;;;5035481;28;20037;-74
2023/04/30 06:25:43;;;;;;;0.20;0.20;;;7.70;99.90;;;;;;5035218;28;20032;-75
2023/04/30 06:28:08;;;;;;;0.22;0.22;;;7.80;99.90;;;;;;5035488;28;20052;-75
2023/04/30 06:30:35;;;;;;;0.22;0.22;;;7.80;99.90;;;;;;5010958;28;20022;-74
2023/04/30 06:33:01;;;;;;;0.10;0.10;;;7.90;99.90;;;;;;5030304;28;20072;-75
2023/04/30 06:35:26;;;;;;;0.20;0.20;;;7.90;99.90;;;;;;5017748;28;20495;-75
2023/04/30 06:37:52;;;;;;;0.10;0.10;;;8.00;99.90;;;;;;5030426;28;20049;-74
2023/04/30 06:40:19;;;;;;;0.10;0.10;;;7.90;99.90;;;;;;5027012;28;20479;-75
2023/04/30 06:42:44;;;;;;;0.20;0.20;;;7.90;99.90;;;;;;5016929;28;20033;-74
2023/04/30 06:45:11;;;;;;;0.17;0.17;;;7.80;99.90;;;;;;5026989;28;20022;-77
2023/04/30 06:47:37;;;;;;;0.20;0.20;;;7.50;99.90;;;;;;5027219;28;20040;-76
2023/04/30 06:50:03;;;;;;;0.20;0.20;;;7.50;99.90;;;;;;5017020;28;20018;-75
2023/04/30 06:52:30;;;;;;;0.20;0.20;;;7.50;99.90;;;;;;5034734;28;20088;-76
2023/04/30 06:54:55;;;;;;;0.20;0.20;;;7.60;99.90;;;;;;5025038;28;20014;-75
2023/04/30 06:57:21;;;;;;;0.20;0.20;;;7.70;99.90;;;;;;5016764;28;20058;-74
2023/04/30 06:59:47;;;;;;;0.20;0.20;;;7.70;99.90;;;;;;5022805;28;20033;-76
2023/04/30 07:02:12;;;;;;;0.20;0.20;;;7.90;99.90;;;;;;5029870;28;20026;-75
2023/04/30 07:04:38;;;;;;;0.15;0.15;;;8.00;99.90;;;;;;5014953;28;20018;-76
2023/04/30 07:07:03;;;;;;;0.15;0.15;;;8.30;99.90;;;;;;5014892;28;20034;-76
2023/04/30 07:09:29;;;;;;;0.20;0.20;;;8.60;99.90;;;;;;5020239;28;20029;-75
2023/04/30 07:11:56;;;;;;;0.20;0.20;;;8.90;99.90;;;;;;5020984;28;20021;-75
2023/04/30 07:14:21;;;;;;;0.20;0.20;;;9.10;99.90;;;;;;5033711;28;20033;-75
2023/04/30 07:16:49;;;;;;;0.20;0.20;;;9.10;99.90;;;;;;5018385;28;20532;-74
2023/04/30 07:19:15;;;;;;;0.10;0.10;;;9.00;99.90;;;;;;5016730;28;20032;-76
2023/04/30 07:21:41;;;;;;;0.10;0.10;;;9.00;99.90;;;;;;5034631;28;20029;-76
2023/04/30 07:24:06;;;;;;;0.20;0.20;;;9.00;99.90;;;;;;5034309;28;20033;-75
2023/04/30 07:26:32;;;;;;;0.20;0.20;;;9.10;99.90;;;;;;5033921;28;20436;-75
2023/04/30 07:28:57;;;;;;;0.20;0.20;;;9.30;99.90;;;;;;5016401;28;20057;-75
2023/04/30 07:31:24;;;;;;;0.20;0.20;;;9.50;99.90;;;;;;5034175;28;20399;-75
2023/04/30 07:33:50;;;;;;;0.30;0.30;;;9.80;99.90;;;;;;5016088;28;20029;-75
2023/04/30 07:36:16;;;;;;;0.20;0.20;;;10.20;99.90;;;;;;5034148;28;20029;-77
2023/04/30 07:38:41;;;;;;;0.20;0.20;;;10.50;99.90;;;;;;5032795;28;20060;-77
2023/04/30 07:41:08;;;;;;;0.10;0.10;;;10.50;99.90;;;;;;5033834;28;20406;-76
2023/04/30 07:43:34;;;;;;;0.20;0.20;;;10.60;99.90;;;;;;5030648;28;20488;-76
2023/04/30 07:45:59;;;;;;;0.10;0.10;;;10.70;99.90;;;;;;5014343;28;20033;-76
2023/04/30 07:48:26;;;;;;;0.10;0.10;;;10.50;99.90;;;;;;5013943;28;20097;-76
2023/04/30 07:50:52;;;;;;;0.20;0.20;;;10.50;99.90;;;;;;5025149;28;20404;-75
2023/04/30 07:53:17;;;;;;;0.20;0.20;;;10.40;99.90;;;;;;5032958;28;20029;-76
2023/04/30 07:55:43;;;;;;;0.20;0.20;;;10.50;99.90;;;;;;5022892;28;20037;-76
2023/04/30 07:58:08;;;;;;;0.10;0.10;;;10.60;99.90;;;;;;5025816;28;20024;-75
2023/04/30 08:00:34;;;;;;;0.20;0.20;;;10.80;99.90;;;;;;5037426;28;20154;-76
2023/04/30 08:03:00;;;;;;;0.20;0.20;;;11.20;99.90;;;;;;5020134;28;20017;-76
2023/04/30 08:05:26;;;;;;;0.10;0.10;;;11.00;99.90;;;;;;5038816;28;20113;-76
2023/04/30 08:07:52;;;;;;;0.17;0.17;;;11.10;99.90;;;;;;5020918;28;20044;-76
2023/04/30 08:10:17;;;;;;;0.20;0.20;;;11.00;99.90;;;;;;5021875;28;20038;-76
2023/04/30 08:12:43;;;;;;;0.30;0.30;;;10.30;99.90;;;;;;5041036;28;20021;-76
2023/04/30 08:15:08;;;;;;;0.20;0.20;;;9.80;99.90;;;;;;5022341;28;20026;-76
2023/04/30 08:17:34;;;;;;;0.20;0.20;;;9.60;99.90;;;;;;5039996;28;20101;-76
2023/04/30 08:20:02;;;;;;;0.15;0.15;;;9.40;99.90;;;;;;5031016;28;20049;-77
2023/04/30 08:22:28;;;;;;;0.20;0.20;;;9.50;99.90;;;;;;5036096;28;20032;-76
2023/04/30 08:24:54;;;;;;;0.20;0.20;;;9.60;99.90;;;;;;5029398;28;20022;-76
2023/04/30 08:27:20;;;;;;;0.20;0.20;;;9.90;99.90;;;;;;5022460;28;20113;-76
2023/04/30 08:29:45;;;;;;;0.20;0.20;;;10.30;99.90;;;;;;5028824;28;20113;-76
2023/04/30 08:32:11;;;;;;;0.22;0.22;;;10.40;99.90;;;;;;5034881;28;20368;-77
2023/04/30 08:34:39;;;;;;;0.25;0.25;;;10.60;99.90;;;;;;5025198;28;20025;-74
2023/04/30 08:37:05;;;;;;;0.20;0.20;;;10.80;99.90;;;;;;5036578;28;20029;-72
2023/04/30 08:39:31;;;;;;;0.20;0.20;;;11.00;99.90;;;;;;5033855;28;20029;-72
2023/04/30 08:42:01;;;;;;;0.22;0.22;;;11.30;99.90;;;;;;5034360;28;20433;-71
2023/04/30 08:44:27;;;;;;;0.10;0.10;;;11.00;99.90;;;;;;5034416;28;20044;-73
2023/04/30 08:46:53;;;;;;;0.10;0.10;;;11.10;99.90;;;;;;5033188;28;20029;-74
2023/04/30 08:49:23;;;;;;;0.20;0.20;;;11.20;99.90;;;;;;5014844;28;20040;-73
2023/04/30 08:51:49;;;;;;;0.10;0.10;;;11.60;99.90;;;;;;5032701;28;20018;-72
2023/04/30 08:54:16;;;;;;;0.10;0.10;;;11.90;99.90;;;;;;5015285;28;20029;-73
2023/04/30 08:56:42;;;;;;;0.20;0.20;;;12.00;99.90;;;;;;5034518;28;20079;-74
2023/04/30 08:59:07;;;;;;;0.20;0.20;;;12.30;99.90;;;;;;5034338;28;20022;-75
2023/04/30 09:01:34;;;;;;;0.20;0.20;;;12.00;99.90;;;;;;5028543;28;20018;-74
2023/04/30 09:04:02;;;;;;;0.20;0.20;;;11.20;99.90;;;;;;5026585;28;20037;-74
2023/04/30 09:06:27;;;;;;;0.20;0.20;;;10.60;99.90;;;;;;5026336;28;20117;-74
2023/04/30 09:08:53;;;;;;;0.10;0.10;;;10.70;99.90;;;;;;5016321;28;20510;-75
2023/04/30 09:11:29;;;;;;;0.10;0.10;;;11.10;99.90;;;;;;5032950;28;20021;-74
2023/04/30 09:13:57;;;;;;;0.10;0.10;;;11.50;99.90;;;;;;5032814;28;20049;-74
2023/04/30 09:16:24;;;;;;;0.20;0.20;;;11.80;99.90;;;;;;5032081;28;20036;-72
2023/04/30 09:18:51;;;;;;;0.20;0.20;;;12.00;99.90;;;;;;5013108;28;20053;-72
2023/04/30 09:21:29;;;;;;;0.10;0.10;;;12.20;99.90;;;;;;5029462;28;20483;-72
2023/04/30 09:24:00;;;;;;;0.20;0.20;;;12.30;99.90;;;;;;5032748;28;20076;-71
2023/04/30 09:26:30;;;;;;;0.20;0.20;;;12.30;99.90;;;;;;5026178;28;20026;-71
2023/04/30 09:28:57;;;;;;;0.20;0.20;;;12.50;99.90;;;;;;5026997;28;20017;-70
2023/04/30 09:31:24;;;;;;;0.20;0.20;;;12.50;99.90;;;;;;5014019;28;20032;-70
2023/04/30 09:33:50;;;;;;;0.20;0.20;;;12.60;99.90;;;;;;5008389;28;20030;-70
2023/04/30 09:36:16;;;;;;;0.20;0.20;;;12.20;99.90;;;;;;5013575;28;20392;-70
2023/04/30 09:38:42;;;;;;;0.10;0.10;;;12.00;99.90;;;;;;5015245;28;20029;-70
2023/04/30 09:41:29;;;;;;;0.17;0.17;;;12.60;99.90;;;;;;5032115;28;20557;-71
2023/04/30 09:43:55;;;;;;;0.10;0.10;;;12.60;99.90;;;;;;5034513;28;20021;-70
2023/04/30 09:46:32;;;;;;;0.20;0.20;;;12.30;99.90;;;;;;5028088;28;20030;-70
2023/04/30 09:49:04;;;;;;;0.20;0.20;;;11.80;99.90;;;;;;5017226;28;20105;-70
2023/04/30 09:51:30;;;;;;;0.20;0.20;;;11.40;99.90;;;;;;5016718;28;20022;-70
2023/04/30 09:53:56;;;;;;;0.20;0.20;;;11.40;99.90;;;;;;5017066;28;20030;-70
2023/04/30 09:56:23;;;;;;;0.20;0.20;;;11.70;99.90;;;;;;5016352;28;20037;-70
2023/04/30 09:58:52;;;;;;;0.20;0.20;;;12.20;99.90;;;;;;5025066;28;20032;-71
2023/04/30 10:01:19;;;;;;;0.20;0.20;;;12.60;99.90;;;;;;5037033;28;20061;-71
2023/04/30 10:03:46;;;;;;;0.20;0.20;;;13.10;99.90;;;;;;5036483;28;20103;-71
2023/04/30 10:06:14;;;;;;;0.10;0.10;;;13.30;99.90;;;;;;5035726;28;20029;-70
2023/04/30 10:08:41;;;;;;;0.20;0.20;;;12.60;99.90;;;;;;5018433;28;20018;-70
2023/04/30 10:11:09;;;;;;;0.10;0.10;;;12.10;99.90;;;;;;5035896;28;20052;-72
2023/04/30 10:14:00;;;;;;;0.17;0.17;;;12.10;99.90;;;;;;5025143;28;20396;-74
2023/04/30 10:16:33;;;;;;;0.20;0.20;;;12.00;99.90;;;;;;5024624;28;20036;-76
2023/04/30 10:19:04;;;;;;;0.17;0.17;;;12.40;99.90;;;;;;5023787;28;20079;-77
2023/04/30 10:21:31;;;;;;;0.10;0.10;;;12.80;99.90;;;;;;5035518;28;20044;-76
2023/04/30 10:23:57;;;;;;;0.20;0.20;;;13.00;99.90;;;;;;5026580;28;20543;-76
2023/04/30 10:26:23;;;;;;;0.10;0.10;;;13.00;99.90;;;;;;5015544;28;20104;-71
2023/04/30 10:28:52;;;;;;;0.20;0.20;;;12.90;99.90;;;;;;5015239;28;20022;-73
2023/04/30 10:31:19;;;;;;;0.10;0.10;;;12.90;99.90;;;;;;5026000;28;20018;-73
2023/04/30 10:34:24;;;;;;;0.10;0.10;;;13.00;99.90;;;;;;5009189;28;20040;-72
2023/04/30 10:36:58;;;;;;;;;;;13.10;99.90;;;;;;5015879;28;20026;-72
2023/04/30 10:39:26;;;;;;;0.13;0.13;;;13.00;99.90;;;;;;5015810;28;19906;-74
2023/04/30 10:42:03;;;;;;;0.20;0.20;;;12.30;99.90;;;;;;5021283;28;20123;-73
2023/04/30 10:44:32;;;;;;;0.20;0.20;;;12.30;99.90;;;;;;5022036;28;20467;-72
2023/04/30 10:47:01;;;;;;;0.13;0.13;;;12.50;99.90;;;;;;5014628;28;20117;-73
2023/04/30 10:49:27;;;;;;;0.22;0.22;;;12.60;99.90;;;;;;5032751;28;20081;-73
2023/04/30 10:51:53;;;;;;;0.10;0.10;;;12.70;99.90;;;;;;5017018;28;20034;-73
2023/04/30 10:54:30;;;;;;;0.20;0.20;;;13.20;99.90;;;;;;5035133;28;20020;-72
2023/04/30 10:57:10;;;;;;;0.10;0.10;;;13.30;99.90;;;;;;5019572;28;20029;-72
2023/04/30 10:59:36;;;;;;;0.20;0.20;;;12.90;99.90;;;;;;5027316;28;20025;-75
2023/04/30 11:02:02;;;;;;;0.20;0.20;;;12.80;99.90;;;;;;5035056;28;20037;-76
2023/04/30 11:04:28;;;;;;;0.20;0.20;;;13.00;99.90;;;;;;5036071;28;20471;-75
2023/04/30 11:07:09;;;;;;;0.10;0.10;;;13.30;99.90;;;;;;5034535;28;20053;-72
2023/04/30 11:09:38;;;;;;;0.20;0.20;;;13.40;99.90;;;;;;5034010;28;20071;-73
2023/04/30 11:12:13;;;;;;;0.10;0.10;;;13.40;99.90;;;;;;5032574;28;20064;-76
2023/04/30 11:14:44;;;;;;;0.20;0.20;;;13.20;99.90;;;;;;5040802;28;20021;-77
2023/04/30 11:17:21;;;;;;;0.20;0.20;;;13.40;99.90;;;;;;5027199;28;20048;-79
2023/04/30 11:19:48;;;;;;;0.10;0.10;;;13.60;99.90;;;;;;5037168;28;20043;-78
2023/04/30 11:22:16;;;;;;;0.10;0.10;;;14.00;99.90;;;;;;5016253;28;20022;-78
2023/04/30 11:24:59;;;;;;;0.10;0.10;;;13.80;99.90;;;;;;5015365;28;20058;-78
2023/04/30 11:27:27;;;;;;;0.20;0.20;;;13.70;99.90;;;;;;4997431;28;20032;-77
2023/04/30 11:29:54;;;;;;;0.13;0.13;;;13.80;99.90;;;;;;5027292;28;20088;-77
2023/04/30 11:32:21;;;;;;;0.10;0.10;;;13.80;99.90;;;;;;5032696;28;20100;-74
2023/04/30 11:34:48;;;;;;;0.20;0.20;;;13.60;99.90;;;;;;5014458;28;20113;-77
2023/04/30 11:37:38;;;;;;;0.20;0.20;;;13.70;99.90;;;;;;5032900;28;20029;-75
2023/04/30 11:40:06;;;;;;;0.20;0.20;;;14.20;99.90;;;;;;5031632;28;20034;-70
2023/04/30 11:42:35;;;;;;;0.10;0.10;;;14.40;99.90;;;;;;4996692;28;20053;-70
2023/04/30 11:45:05;;;;;;;0.10;0.10;;;14.40;99.90;;;;;;5016748;28;20063;-70
2023/04/30 11:47:41;;;;;;;0.10;0.10;;;14.70;99.90;;;;;;5029251;28;20029;-71
2023/04/30 11:50:11;;;;;;;0.10;0.10;;;14.70;99.90;;;;;;5030552;28;20017;-71
2023/04/30 11:52:38;;;;;;;0.20;0.20;;;15.10;99.90;;;;;;5033785;28;20025;-71
2023/04/30 11:55:15;;;;;;;0.20;0.20;;;15.10;99.90;;;;;;5033730;28;20491;-71
2023/04/30 11:57:46;;;;;;;0.17;0.17;;;15.10;99.90;;;;;;5013475;28;20037;-71
2023/04/30 12:00:14;;;;;;;0.10;0.10;;;15.00;99.90;;;;;;4996728;28;20029;-75
2023/04/30 12:02:41;;;;;;;0.20;0.20;;;15.30;99.90;;;;;;5032532;28;20032;-72
2023/04/30 12:05:19;;;;;;;0.20;0.20;;;15.70;99.90;;;;;;5035690;28;20033;-75
2023/04/30 12:08:07;;;;;;;0.10;0.10;;;15.80;99.90;;;;;;4998172;28;20411;-74
2023/04/30 12:10:34;;;;;;;0.10;0.10;;;15.80;99.90;;;;;;5028735;28;20063;-75
2023/04/30 12:12:59;;;;;;;0.10;0.10;;;15.80;99.90;;;;;;5032805;28;20040;-74
2023/04/30 12:15:26;;;;;;;0.20;0.20;;;15.60;99.90;;;;;;5033474;28;20026;-75
2023/04/30 12:17:54;;;;;;;0.10;0.10;;;15.60;99.90;;;;;;5033365;28;20442;-75
2023/04/30 12:20:20;;;;;;;0.20;0.20;;;15.80;99.90;;;;;;5033354;28;20112;-75
2023/04/30 12:22:47;;;;;;;0.13;0.13;;;16.00;99.90;;;;;;5015582;28;20038;-75
2023/04/30 12:25:21;;;;;;;0.10;0.10;;;16.50;99.90;;;;;;5032802;28;20040;-74
2023/04/30 12:27:49;;;;;;;0.20;0.20;;;16.60;99.90;;;;;;5033123;28;20087;-75
2023/04/30 12:30:20;;;;;;;0.10;0.10;;;16.80;99.90;;;;;;5034566;28;20104;-74
2023/04/30 12:32:49;;;;;;;0.10;0.10;;;17.10;99.90;;;;;;5016821;28;20072;-75
2023/04/30 12:35:17;;;;;;;0.20;0.20;;;17.00;99.90;;;;;;5032151;28;20024;-74
2023/04/30 12:37:44;;;;;;;0.10;0.10;;;16.60;99.90;;;;;;5011575;28;20067;-73
2023/04/30 12:40:11;;;;;;;0.17;0.17;;;17.20;99.90;;;;;;5028090;28;20113;-74
2023/04/30 12:42:36;;;;;;;0.20;0.20;;;17.10;99.90;;;;;;5026480;28;20017;-75
2023/04/30 12:45:02;;;;;;;0.10;0.10;;;17.00;99.90;;;;;;5033600;28;20076;-75
2023/04/30 12:47:28;;;;;;;0.20;0.20;;;17.10;99.90;;;;;;5015988;28;20032;-75
2023/04/30 12:49:54;;;;;;;0.10;0.10;;;17.10;99.90;;;;;;5033961;28;20109;-76
2023/04/30 12:52:24;;;;;;;0.20;0.20;;;17.00;99.90;;;;;;5033726;28;20060;-74
2023/04/30 12:54:49;;;;;;;0.10;0.10;;;17.60;99.90;;;;;;5014376;28;20446;-75
2023/04/30 12:57:15;;;;;;;0.10;0.10;;;17.70;99.90;;;;;;4996583;28;20022;-75